Time;durP1;ratioP1;P1;durP2;ratioP2;P2;SDS_P1;SDS_P2;PMS_P1;PMS_P2;Temp;Humidity;BMP_temperature;BMP_pressure;BME280_temperature;BME280_humidity;BME280_pressure;Samples;Min_cycle;Max_cycle;Signal;HPM_P1;HPM_P2
2021/10/31 00:43:00;;;;;;;5.80;4.80;;;;;;;12.83;83.96;98235.47;2620430;47;20034;-71
2021/10/31 00:45:30;;;;;;;11.05;5.53;;;;;;;12.82;84.04;98236.53;2620446;54;20018;-70
2021/10/31 00:47:59;;;;;;;4.75;4.20;;;;;;;12.84;84.49;98239.75;2618170;47;20023;-70
2021/10/31 00:50:29;;;;;;;8.50;6.95;;;;;;;12.88;84.44;98239.09;2617900;47;20082;-69
2021/10/31 00:53:01;;;;;;;4.82;4.10;;;;;;;12.89;84.11;98239.88;2617595;47;20118;-69
2021/10/31 00:55:31;;;;;;;6.95;4.45;;;;;;;12.90;84.02;98252.16;2618416;54;20037;-70
2021/10/31 00:58:04;;;;;;;5.43;4.43;;;;;;;12.91;84.09;98250.31;2619965;54;20041;-70
2021/10/31 01:00:33;;;;;;;8.17;5.10;;;;;;;12.93;83.88;98248.22;2622994;39;20446;-70
2021/10/31 01:03:03;;;;;;;4.35;3.95;;;;;;;12.95;83.92;98246.97;2623184;54;20793;-70
2021/10/31 01:05:36;;;;;;;7.38;4.57;;;;;;;12.97;83.72;98254.72;2622867;54;20034;-71
2021/10/31 01:08:15;;;;;;;4.68;4.07;;;;;;;12.99;83.67;98255.31;2621508;54;20026;-70
2021/10/31 01:11:29;;;;;;;7.57;4.53;;;;;;;13.03;84.16;98256.50;2621498;54;20031;-70
2021/10/31 01:14:30;;;;;;;5.35;4.28;;;;;;;13.04;83.97;98263.41;2617237;54;20027;-70
2021/10/31 01:17:13;;;;;;;7.72;4.38;;;;;;;13.05;83.67;98257.06;2617480;47;20042;-70
2021/10/31 01:19:57;;;;;;;5.80;4.03;;;;;;;13.07;84.01;98261.13;2617681;47;20034;-70
2021/10/31 01:22:36;;;;;;;;;;;;;;;13.10;83.50;98258.03;2618449;54;20043;-70
2021/10/31 01:25:20;;;;;;;4.05;3.63;;;;;;;13.10;83.61;98251.91;2618127;54;20446;-70
2021/10/31 01:28:04;;;;;;;6.38;4.18;;;;;;;13.15;83.35;98249.41;2618120;54;20022;-70
2021/10/31 01:30:47;;;;;;;4.57;4.10;;;;;;;13.17;83.66;98247.34;2618062;54;20597;-70
2021/10/31 01:33:27;;;;;;;4.82;4.13;;;;;;;13.20;83.27;98243.44;2618228;54;20026;-70
2021/10/31 01:36:06;;;;;;;3.90;3.50;;;;;;;13.20;83.57;98236.28;2617649;47;20026;-69
2021/10/31 01:38:43;;;;;;;4.82;3.92;;;;;;;13.24;83.69;98244.63;2618606;39;20434;-70
2021/10/31 01:41:18;;;;;;;6.88;3.72;;;;;;;13.27;83.53;98245.00;2618282;39;20442;-70
2021/10/31 01:43:59;;;;;;;4.38;3.40;;;;;;;13.32;83.09;98255.75;2617477;47;20022;-71
2021/10/31 01:46:40;;;;;;;4.13;3.72;;;;;;;13.34;83.06;98256.31;2617633;54;20550;-69
2021/10/31 01:49:19;;;;;;;4.00;3.60;;;;;;;13.34;83.52;98260.84;2617597;54;20037;-70
2021/10/31 01:51:54;;;;;;;3.90;3.50;;;;;;;13.34;83.44;98261.63;2618226;39;20445;-68
2021/10/31 01:54:29;;;;;;;4.97;3.80;;;;;;;13.36;82.80;98267.53;2618207;54;20049;-69
2021/10/31 01:57:04;;;;;;;4.38;3.75;;;;;;;13.36;83.20;98259.59;2617830;54;20061;-69
2021/10/31 01:59:39;;;;;;;4.95;3.65;;;;;;;13.38;83.01;98260.16;2617651;47;20034;-70
2021/10/31 02:02:13;;;;;;;3.72;3.30;;;;;;;13.40;83.09;98257.28;2618934;54;20029;-69
2021/10/31 02:04:47;;;;;;;5.32;3.35;;;;;;;13.40;82.47;98251.19;2620636;39;20327;-70
2021/10/31 02:07:20;;;;;;;3.50;3.20;;;;;;;13.45;82.84;98248.66;2619524;39;20438;-70
2021/10/31 02:09:53;;;;;;;8.40;3.40;;;;;;;13.46;82.73;98231.69;2617854;47;20026;-69
2021/10/31 02:12:23;;;;;;;8.45;3.53;;;;;;;13.43;82.15;98243.59;2617867;54;20014;-69
2021/10/31 02:14:55;;;;;;;4.45;2.75;;;;;;;13.42;82.27;98241.94;2617485;47;20018;-70
2021/10/31 02:17:27;;;;;;;5.32;3.42;;;;;;;13.43;82.44;98254.19;2618471;39;20514;-70
2021/10/31 02:19:58;;;;;;;3.53;3.22;;;;;;;13.42;82.52;98249.09;2618139;54;20035;-70
2021/10/31 02:22:30;;;;;;;3.50;3.20;;;;;;;13.40;82.74;98244.03;2617200;47;20031;-70
2021/10/31 02:25:03;;;;;;;5.05;3.80;;;;;;;13.42;82.13;98246.44;2617483;47;20035;-70
2021/10/31 02:27:35;;;;;;;3.83;3.37;;;;;;;13.42;82.64;98246.44;2617544;47;20030;-70
2021/10/31 02:30:07;;;;;;;4.78;3.30;;;;;;;13.42;82.28;98254.41;2618098;54;20019;-70
2021/10/31 02:32:36;;;;;;;3.47;3.17;;;;;;;13.40;82.50;98256.50;2617664;54;20030;-71
2021/10/31 02:35:09;;;;;;;4.15;3.00;;;;;;;13.42;82.48;98246.44;2618011;54;20046;-70
2021/10/31 02:37:39;;;;;;;4.00;2.80;;;;;;;13.42;82.62;98246.44;2618087;54;20022;-71
2021/10/31 02:40:14;;;;;;;11.63;3.25;;;;;;;13.43;82.74;98240.94;2617753;54;20030;-70
2021/10/31 02:42:44;;;;;;;4.65;3.10;;;;;;;13.45;82.29;98238.84;2618633;31;20503;-70
2021/10/31 02:45:14;;;;;;;3.50;3.20;;;;;;;13.45;82.43;98233.53;2617764;54;20014;-70
2021/10/31 02:47:48;;;;;;;4.45;3.25;;;;;;;13.42;82.23;98227.84;2617960;54;20023;-71
2021/10/31 02:50:21;;;;;;;4.38;3.00;;;;;;;13.41;82.46;98220.94;2617123;49;20030;-69
2021/10/31 02:53:19;;;;;;;4.70;3.33;;;;;;;13.42;82.50;98220.69;2617942;54;20037;-71
2021/10/31 02:56:10;;;;;;;3.92;3.17;;;;;;;13.39;82.36;98218.50;2618459;39;20437;-70
2021/10/31 02:58:47;;;;;;;4.15;3.05;;;;;;;13.38;82.54;98220.34;2618654;39;20391;-70
2021/10/31 03:01:18;;;;;;;4.20;3.00;;;;;;;13.41;82.17;98216.44;2618053;39;20492;-71
2021/10/31 03:03:49;;;;;;;4.38;3.17;;;;;;;13.43;82.55;98210.88;2617708;39;20437;-71
2021/10/31 03:06:21;;;;;;;3.10;2.65;;;;;;;13.42;82.44;98217.25;2617943;54;20777;-69
2021/10/31 03:08:52;;;;;;;3.83;3.20;;;;;;;13.41;82.33;98220.94;2617515;54;20038;-70
2021/10/31 03:11:24;;;;;;;4.75;2.90;;;;;;;13.42;81.97;98217.25;2617608;54;20554;-70
2021/10/31 03:13:54;;;;;;;4.07;3.22;;;;;;;13.42;81.97;98227.84;2617062;48;20029;-70
2021/10/31 03:16:24;;;;;;;2.97;2.67;;;;;;;13.42;81.91;98230.50;2618509;39;20415;-69
2021/10/31 03:18:53;;;;;;;4.18;3.05;;;;;;;13.40;81.83;98225.44;2618274;54;20054;-69
2021/10/31 03:21:23;;;;;;;9.35;2.67;;;;;;;13.39;81.91;98221.16;2618596;54;20030;-69
2021/10/31 03:23:53;;;;;;;4.90;2.70;;;;;;;13.41;81.94;98220.94;2618761;54;20034;-69
2021/10/31 03:26:25;;;;;;;5.82;2.97;;;;;;;13.37;82.20;98217.91;2618432;54;20033;-69
2021/10/31 03:28:54;;;;;;;2.60;2.40;;;;;;;13.37;81.89;98224.03;2619215;54;20026;-69
2021/10/31 03:31:24;;;;;;;3.45;2.88;;;;;;;13.40;82.21;98225.44;2618657;54;20037;-69
2021/10/31 03:33:54;;;;;;;3.30;2.38;;;;;;;13.41;82.20;98223.59;2618103;54;20035;-70
2021/10/31 03:36:23;;;;;;;2.80;2.60;;;;;;;13.39;82.25;98226.47;2618715;54;20562;-70
2021/10/31 03:38:53;;;;;;;5.38;3.08;;;;;;;13.40;82.10;98225.44;2618237;54;20028;-70
2021/10/31 03:41:26;;;;;;;4.68;2.95;;;;;;;13.42;82.06;98219.88;2617801;47;20039;-70
2021/10/31 03:43:56;;;;;;;4.57;2.80;;;;;;;13.43;82.44;98213.53;2622915;54;20036;-70
2021/10/31 03:46:25;;;;;;;4.28;2.80;;;;;;;13.42;82.11;98210.06;2623800;54;20030;-70
2021/10/31 03:48:55;;;;;;;3.13;2.45;;;;;;;13.44;82.40;98221.28;2625406;39;20446;-70
2021/10/31 03:51:25;;;;;;;3.50;2.63;;;;;;;13.42;81.84;98217.25;2627721;39;20418;-70
2021/10/31 03:53:54;;;;;;;4.72;2.83;;;;;;;13.43;82.03;98211.72;2625331;54;20030;-70
2021/10/31 03:56:26;;;;;;;5.00;2.80;;;;;;;13.43;82.61;98216.19;2624828;54;20052;-70
2021/10/31 03:58:56;;;;;;;7.32;2.75;;;;;;;13.45;82.20;98216.78;2624482;46;20034;-70
2021/10/31 04:01:27;;;;;;;2.50;2.30;;;;;;;13.43;82.68;98219.69;2624638;54;20038;-69
2021/10/31 04:03:57;;;;;;;3.17;2.45;;;;;;;13.44;82.78;98226.59;2624692;47;20621;-69
2021/10/31 04:06:27;;;;;;;3.53;2.35;;;;;;;13.49;82.45;98228.59;2625076;54;20037;-70
2021/10/31 04:08:56;;;;;;;3.53;2.55;;;;;;;13.49;82.66;98217.97;2624318;47;20046;-70
2021/10/31 04:11:29;;;;;;;3.22;2.15;;;;;;;13.52;82.67;98220.19;2624600;54;20030;-71
2021/10/31 04:13:58;;;;;;;3.67;2.75;;;;;;;13.53;82.75;98211.16;2625008;54;20038;-70
2021/10/31 04:16:29;;;;;;;2.92;2.40;;;;;;;13.53;82.31;98221.78;2624985;54;20022;-71
2021/10/31 04:18:58;;;;;;;5.55;2.60;;;;;;;13.53;82.70;98217.28;2621211;54;20030;-70
2021/10/31 04:21:28;;;;;;;2.70;2.47;;;;;;;13.54;82.28;98218.09;2620010;47;20030;-70
2021/10/31 04:23:58;;;;;;;2.63;2.33;;;;;;;13.56;82.69;98213.38;2620204;54;20026;-71
2021/10/31 04:26:30;;;;;;;3.88;2.10;;;;;;;13.59;82.45;98212.91;2619620;54;20042;-71
2021/10/31 04:29:00;;;;;;;3.05;2.42;;;;;;;13.60;82.47;98211.88;2619658;54;20049;-71
2021/10/31 04:31:30;;;;;;;2.28;2.08;;;;;;;13.57;82.24;98207.84;2619079;54;20030;-71
2021/10/31 04:33:59;;;;;;;3.60;2.35;;;;;;;13.56;82.27;98211.53;2618757;54;20034;-71
2021/10/31 04:36:29;;;;;;;2.60;2.40;;;;;;;13.56;82.45;98211.53;2618160;54;20056;-70
2021/10/31 04:38:58;;;;;;;3.38;2.50;;;;;;;13.59;82.47;98211.09;2618616;54;20027;-71
2021/10/31 04:41:31;;;;;;;2.65;2.45;;;;;;;13.61;82.51;98210.84;2618404;54;20038;-70
2021/10/31 04:44:01;;;;;;;3.97;2.67;;;;;;;13.60;82.67;98207.38;2618448;54;20026;-69
2021/10/31 04:46:31;;;;;;;4.07;2.92;;;;;;;13.60;82.15;98209.22;2618434;54;20030;-70
2021/10/31 04:49:01;;;;;;;3.20;2.60;;;;;;;13.62;82.81;98215.13;2618406;54;20038;-70
2021/10/31 04:51:30;;;;;;;4.35;2.70;;;;;;;13.63;82.60;98204.28;2617553;54;20038;-69
2021/10/31 04:54:00;;;;;;;2.50;2.30;;;;;;;13.61;82.32;98216.16;2617844;54;20042;-70
2021/10/31 04:56:32;;;;;;;2.22;2.03;;;;;;;13.61;82.77;98214.31;2617825;47;20034;-70
2021/10/31 04:59:02;;;;;;;2.70;2.47;;;;;;;13.65;82.15;98206.69;2618408;54;20045;-70
2021/10/31 05:01:31;;;;;;;2.85;2.45;;;;;;;13.62;82.37;98200.00;2617905;54;20019;-69
2021/10/31 05:04:01;;;;;;;4.82;2.80;;;;;;;13.58;82.47;98195.34;2618791;54;20038;-70
2021/10/31 05:06:31;;;;;;;2.67;2.47;;;;;;;13.48;82.02;98198.56;2618597;31;20554;-70
2021/10/31 05:09:01;;;;;;;2.70;2.42;;;;;;;13.38;82.36;98200.94;2618632;54;20043;-71
2021/10/31 05:11:33;;;;;;;3.33;2.67;;;;;;;13.35;82.78;98193.44;2618088;54;20042;-70
2021/10/31 05:14:02;;;;;;;2.95;2.70;;;;;;;13.37;82.74;98194.03;2618213;54;20030;-70
2021/10/31 05:16:32;;;;;;;2.40;2.20;;;;;;;13.31;83.21;98187.78;2618221;54;20039;-70
2021/10/31 05:19:02;;;;;;;4.68;2.72;;;;;;;13.31;83.15;98187.78;2618246;54;20072;-70
2021/10/31 05:21:32;;;;;;;4.90;3.25;;;;;;;13.27;83.34;98185.81;2618057;54;20037;-71
2021/10/31 05:24:01;;;;;;;3.63;2.13;;;;;;;13.25;83.96;98183.34;2618196;54;20026;-70
2021/10/31 05:26:34;;;;;;;4.00;2.60;;;;;;;13.33;83.63;98195.50;2618407;54;20545;-70
2021/10/31 05:29:03;;;;;;;5.57;4.50;;;;;;;13.34;83.37;98189.16;2618267;54;20590;-71
2021/10/31 05:31:33;;;;;;;5.63;4.30;;;;;;;13.35;83.81;98199.56;2618075;54;20561;-69
2021/10/31 05:34:04;;;;;;;4.35;3.20;;;;;;;13.36;83.26;98184.44;2617904;46;20558;-70
2021/10/31 05:36:35;;;;;;;5.50;2.63;;;;;;;13.33;83.19;98193.66;2619363;54;20042;-69
2021/10/31 05:39:06;;;;;;;3.40;2.33;;;;;;;13.33;83.54;98183.03;2619987;54;20034;-70
2021/10/31 05:41:38;;;;;;;3.22;2.92;;;;;;;13.31;83.18;98179.81;2620132;54;20034;-70
2021/10/31 05:44:08;;;;;;;4.22;3.05;;;;;;;13.30;83.58;98187.97;2619537;47;20021;-70
2021/10/31 05:46:38;;;;;;;5.28;2.95;;;;;;;13.30;83.77;98172.88;2619063;54;20022;-71
2021/10/31 05:49:07;;;;;;;3.15;2.85;;;;;;;13.27;83.26;98170.69;2618355;54;20039;-70
2021/10/31 05:51:37;;;;;;;4.72;3.03;;;;;;;13.25;83.63;98180.69;2617873;47;20123;-71
2021/10/31 05:54:07;;;;;;;3.22;2.80;;;;;;;13.27;84.01;98178.66;2618450;54;20031;-70
2021/10/31 05:56:39;;;;;;;3.78;2.80;;;;;;;13.27;83.68;98176.00;2618530;54;20026;-70
2021/10/31 05:59:09;;;;;;;4.60;2.60;;;;;;;13.26;83.89;98173.53;2618548;54;20060;-69
2021/10/31 06:01:39;;;;;;;3.13;2.45;;;;;;;13.24;84.11;98178.28;2619854;54;20031;-69
2021/10/31 06:04:09;;;;;;;4.95;2.63;;;;;;;13.23;84.38;98179.31;2620606;54;20067;-69
2021/10/31 06:06:39;;;;;;;3.67;2.90;;;;;;;13.24;84.18;98170.31;2621684;47;20027;-69
2021/10/31 06:09:08;;;;;;;5.45;3.22;;;;;;;13.25;84.07;98169.28;2622283;54;20022;-69
2021/10/31 06:11:41;;;;;;;6.00;4.30;;;;;;;13.24;83.98;98172.97;2622283;47;20042;-69
2021/10/31 06:14:11;;;;;;;4.15;3.25;;;;;;;13.21;83.97;98171.53;2622386;47;20030;-69
2021/10/31 06:16:41;;;;;;;15.77;10.38;;;;;;;13.23;83.62;98166.84;2623307;54;20030;-69
2021/10/31 06:19:11;;;;;;;7.93;7.13;;;;;;;13.18;83.89;98166.66;2623351;54;20052;-69
2021/10/31 06:21:41;;;;;;;7.63;6.07;;;;;;;13.12;83.90;98162.28;2623653;54;20026;-70
2021/10/31 06:24:11;;;;;;;6.38;5.30;;;;;;;13.10;84.71;98159.84;2622642;47;20557;-69
2021/10/31 06:26:43;;;;;;;6.57;5.90;;;;;;;13.14;84.23;98141.63;2622229;51;20074;-69
2021/10/31 06:29:14;;;;;;;5.55;3.85;;;;;;;13.07;84.60;98135.59;2623185;47;20027;-69
2021/10/31 06:31:44;;;;;;;4.70;4.20;;;;;;;13.06;84.33;98136.63;2622837;47;20022;-69
2021/10/31 06:34:14;;;;;;;4.45;4.05;;;;;;;13.03;84.69;98140.56;2623456;39;20418;-69
2021/10/31 06:36:44;;;;;;;9.35;6.38;;;;;;;12.98;84.83;98135.13;2623644;54;20031;-69
2021/10/31 06:39:14;;;;;;;4.00;3.15;;;;;;;13.01;85.14;98133.84;2623167;54;20037;-69
2021/10/31 06:41:46;;;;;;;6.43;4.93;;;;;;;13.04;85.81;98128.09;2620361;54;20034;-70
2021/10/31 06:44:15;;;;;;;3.38;3.08;;;;;;;13.08;85.87;98129.25;2624233;54;20035;-71
2021/10/31 06:46:45;;;;;;;3.58;3.28;;;;;;;13.15;85.74;98124.69;2624572;54;20568;-71
2021/10/31 06:49:15;;;;;;;5.32;4.43;;;;;;;13.23;85.34;98127.03;2624099;54;20039;-70
2021/10/31 06:51:44;;;;;;;3.30;3.00;;;;;;;13.28;85.25;98131.69;2624991;54;20063;-71
2021/10/31 06:54:15;;;;;;;3.25;2.95;;;;;;;13.33;85.72;98124.63;2624553;46;20037;-72
2021/10/31 06:56:47;;;;;;;4.43;2.80;;;;;;;13.40;85.73;98121.09;2626077;54;20027;-70
2021/10/31 06:59:16;;;;;;;3.78;3.42;;;;;;;13.52;85.56;98108.66;2623956;54;20027;-73
2021/10/31 07:01:46;;;;;;;3.75;3.45;;;;;;;13.55;84.66;98109.00;2625734;54;20149;-73
2021/10/31 07:04:16;;;;;;;3.70;3.40;;;;;;;13.61;84.82;98102.78;2625383;54;20031;-70
2021/10/31 07:06:46;;;;;;;5.20;3.85;;;;;;;13.62;84.75;98109.69;2622561;47;20037;-70
2021/10/31 07:09:15;;;;;;;9.85;4.25;;;;;;;13.71;84.71;98117.31;2625090;54;20038;-71
2021/10/31 07:11:47;;;;;;;5.82;4.35;;;;;;;13.80;84.43;98123.94;2623315;54;20019;-71
2021/10/31 07:14:17;;;;;;;5.60;3.53;;;;;;;13.86;84.77;98113.19;2625389;54;20399;-71
2021/10/31 07:16:47;;;;;;;4.97;4.53;;;;;;;13.92;84.49;98102.66;2625393;39;20411;-70
2021/10/31 07:19:17;;;;;;;3.97;3.67;;;;;;;13.92;83.11;98095.53;2625230;54;20043;-69
2021/10/31 07:21:48;;;;;;;4.55;3.38;;;;;;;13.82;84.02;98090.78;2623867;47;20030;-71
2021/10/31 07:24:17;;;;;;;4.20;3.05;;;;;;;13.85;84.11;98089.50;2625171;54;20030;-70
2021/10/31 07:26:50;;;;;;;6.47;2.72;;;;;;;13.89;84.77;98088.00;2624751;54;20031;-70
2021/10/31 07:29:19;;;;;;;3.75;3.00;;;;;;;14.07;84.71;98090.53;2625256;39;20451;-70
2021/10/31 07:31:51;;;;;;;2.92;2.58;;;;;;;14.15;84.39;98080.59;2624646;39;20444;-70
2021/10/31 07:34:24;;;;;;;4.13;2.75;;;;;;;14.28;84.53;98086.47;2625508;54;20030;-70
2021/10/31 07:36:54;;;;;;;6.10;3.70;;;;;;;14.31;83.99;98080.69;2625277;54;20046;-71
2021/10/31 07:39:24;;;;;;;6.95;3.55;;;;;;;14.38;83.58;98084.03;2624972;46;20037;-70
2021/10/31 07:41:56;;;;;;;8.15;5.35;;;;;;;14.49;83.31;98068.31;2624156;54;20030;-73
2021/10/31 07:44:26;;;;;;;9.77;6.47;;;;;;;14.57;83.06;98067.94;2624735;39;20437;-70
2021/10/31 07:46:56;;;;;;;5.43;4.75;;;;;;;14.59;83.02;98077.31;2624831;54;20578;-69
2021/10/31 07:49:26;;;;;;;3.78;3.30;;;;;;;14.68;82.81;98072.41;2625223;54;20034;-71
2021/10/31 07:51:55;;;;;;;4.95;3.55;;;;;;;14.79;82.46;98068.09;2624385;47;20051;-71
2021/10/31 07:54:26;;;;;;;5.40;4.03;;;;;;;14.91;82.04;98068.88;2624209;54;20543;-71
2021/10/31 07:57:00;;;;;;;4.53;3.17;;;;;;;14.99;81.29;98068.47;2624724;54;20038;-71
2021/10/31 07:59:30;;;;;;;3.95;3.45;;;;;;;15.02;81.43;98061.84;2625277;54;20035;-71
2021/10/31 08:02:02;;;;;;;3.80;3.47;;;;;;;15.09;80.59;98049.22;2625204;39;20429;-71
2021/10/31 08:04:32;;;;;;;3.97;3.35;;;;;;;15.08;80.43;98048.41;2624169;54;20030;-72
2021/10/31 08:07:01;;;;;;;6.40;5.80;;;;;;;15.17;79.95;98032.84;2624415;54;20042;-72
2021/10/31 08:09:31;;;;;;;4.55;3.58;;;;;;;15.23;79.87;98023.09;2623984;54;20038;-72
2021/10/31 08:12:03;;;;;;;6.05;3.40;;;;;;;15.27;79.96;98027.72;2623719;54;20030;-73
2021/10/31 08:14:33;;;;;;;5.72;2.78;;;;;;;15.31;79.63;98020.03;2623308;47;20057;-72
2021/10/31 08:17:02;;;;;;;2.55;2.35;;;;;;;15.30;79.79;98016.53;2624119;54;20033;-71
2021/10/31 08:19:32;;;;;;;2.70;2.20;;;;;;;15.35;79.46;98011.31;2624371;54;20034;-71
2021/10/31 08:22:02;;;;;;;5.93;2.40;;;;;;;15.35;79.49;98006.00;2624704;54;20045;-71
2021/10/31 08:24:31;;;;;;;3.42;2.20;;;;;;;15.41;79.46;98011.41;2624518;54;20034;-72
2021/10/31 08:27:04;;;;;;;3.35;1.92;;;;;;;15.43;79.33;98015.44;2624210;54;20791;-72
2021/10/31 08:29:33;;;;;;;2.13;1.92;;;;;;;15.49;78.91;98018.97;2622245;54;20038;-71
2021/10/31 08:32:03;;;;;;;2.47;1.80;;;;;;;15.53;78.96;98025.44;2623429;46;20046;-72
2021/10/31 08:34:33;;;;;;;3.88;2.03;;;;;;;15.63;78.97;98022.09;2624180;54;20030;-71
2021/10/31 08:37:03;;;;;;;2.53;2.10;;;;;;;15.75;78.91;98009.53;2621565;47;20031;-72
2021/10/31 08:39:33;;;;;;;3.58;2.13;;;;;;;15.89;78.28;98007.34;2621480;54;20046;-72
2021/10/31 08:42:05;;;;;;;2.30;1.65;;;;;;;15.92;77.90;98015.66;2620982;54;20042;-71
2021/10/31 08:44:37;;;;;;;3.17;1.55;;;;;;;15.96;77.09;98019.44;2621517;54;20034;-72
2021/10/31 08:47:07;;;;;;;2.75;1.70;;;;;;;16.02;77.32;98023.78;2621604;54;20600;-71
2021/10/31 08:49:37;;;;;;;3.72;3.00;;;;;;;16.11;76.49;98018.81;2620420;51;20141;-71
2021/10/31 08:52:07;;;;;;;1.88;1.67;;;;;;;16.20;75.98;98016.50;2620294;54;20042;-71
2021/10/31 08:54:39;;;;;;;1.63;1.52;;;;;;;16.35;75.55;98009.50;2621743;46;20030;-71
2021/10/31 08:57:11;;;;;;;4.80;2.03;;;;;;;16.42;74.68;98005.88;2621441;54;20038;-71
2021/10/31 08:59:41;;;;;;;2.95;2.58;;;;;;;16.49;74.94;98009.97;2621319;54;20046;-71
2021/10/31 09:02:11;;;;;;;3.70;2.63;;;;;;;16.50;73.81;98008.09;2621427;54;20034;-72
2021/10/31 09:04:41;;;;;;;3.85;2.58;;;;;;;16.55;73.67;98008.13;2623069;31;20582;-72
2021/10/31 09:07:14;;;;;;;3.63;2.63;;;;;;;16.63;73.90;97999.69;2622782;39;20453;-71
2021/10/31 09:09:44;;;;;;;12.20;10.90;;;;;;;16.75;73.68;98000.38;2622515;54;20027;-70
2021/10/31 09:12:18;;;;;;;2.33;1.90;;;;;;;16.76;73.30;97991.31;2622015;54;20033;-72
2021/10/31 09:14:47;;;;;;;2.53;1.70;;;;;;;16.80;72.88;97994.28;2623262;54;20026;-72
2021/10/31 09:17:17;;;;;;;4.60;3.75;;;;;;;16.85;72.85;97988.97;2623844;54;20081;-71
2021/10/31 09:19:47;;;;;;;3.88;1.60;;;;;;;16.87;72.27;97986.06;2623356;54;20034;-72
2021/10/31 09:22:16;;;;;;;2.28;1.80;;;;;;;16.94;72.01;98006.19;2623842;54;20037;-72
2021/10/31 09:24:46;;;;;;;3.65;1.80;;;;;;;16.95;72.55;98002.44;2624745;39;20446;-71
2021/10/31 09:27:19;;;;;;;1.42;1.30;;;;;;;16.88;72.21;97995.69;2623496;54;20030;-72
2021/10/31 09:29:50;;;;;;;4.20;1.88;;;;;;;16.83;72.22;97997.25;2623222;54;20038;-72
2021/10/31 09:32:30;;;;;;;3.15;2.45;;;;;;;16.83;71.68;97999.91;2623036;54;20039;-71
2021/10/31 09:35:02;;;;;;;2.45;1.73;;;;;;;16.74;71.92;98004.09;2621968;54;20035;-70
2021/10/31 09:37:32;;;;;;;1.77;1.40;;;;;;;16.75;72.00;97989.69;2623603;54;20034;-70
2021/10/31 09:40:03;;;;;;;3.65;3.20;;;;;;;16.86;71.42;97992.44;2623606;39;20433;-70
2021/10/31 09:42:36;;;;;;;2.00;1.50;;;;;;;16.84;71.42;97990.84;2623661;54;20070;-71
2021/10/31 09:45:07;;;;;;;2.33;1.60;;;;;;;16.86;71.51;97989.78;2623861;54;20138;-70
2021/10/31 09:47:37;;;;;;;4.20;3.40;;;;;;;16.98;71.48;97985.09;2623438;39;20422;-69
2021/10/31 09:50:07;;;;;;;2.08;1.88;;;;;;;17.13;70.36;97979.88;2622439;54;20129;-69
2021/10/31 09:52:37;;;;;;;4.65;2.45;;;;;;;17.24;70.37;97978.09;2620438;54;20031;-68
2021/10/31 09:55:07;;;;;;;2.08;1.88;;;;;;;17.38;69.99;97973.94;2620537;54;20038;-70
2021/10/31 09:57:40;;;;;;;3.33;2.22;;;;;;;17.58;69.47;97968.72;2620631;47;20027;-70
2021/10/31 10:00:14;;;;;;;2.05;1.73;;;;;;;17.73;69.15;97970.69;2622774;54;20543;-71
2021/10/31 10:03:04;;;;;;;2.58;1.60;;;;;;;17.71;69.03;97966.66;2624510;39;20089;-73
2021/10/31 10:05:34;;;;;;;1.85;1.65;;;;;;;17.73;68.86;97961.88;2624505;54;20034;-73
2021/10/31 10:08:12;;;;;;;2.30;1.60;;;;;;;17.82;68.69;97952.31;2624086;54;20046;-70
2021/10/31 10:10:44;;;;;;;3.97;1.73;;;;;;;17.86;68.96;97947.25;2623224;54;20046;-70
2021/10/31 10:13:25;;;;;;;2.00;1.80;;;;;;;17.91;68.51;97958.75;2625014;39;20442;-71
2021/10/31 10:16:13;;;;;;;2.38;1.50;;;;;;;17.90;68.49;97951.03;2624102;39;20448;-70
2021/10/31 10:18:43;;;;;;;1.75;1.65;;;;;;;17.96;67.52;97948.13;2624944;39;20430;-70
2021/10/31 10:21:18;;;;;;;5.43;2.22;;;;;;;17.99;67.20;97934.19;2623995;39;20407;-71
2021/10/31 10:23:54;;;;;;;1.88;1.77;;;;;;;18.02;67.52;97930.22;2624431;54;20038;-71
2021/10/31 10:26:34;;;;;;;1.63;1.27;;;;;;;18.05;66.78;97924.34;2624223;54;20338;-71
2021/10/31 10:29:13;;;;;;;3.25;1.63;;;;;;;17.99;66.41;97912.00;2623986;54;20034;-70
2021/10/31 10:31:44;;;;;;;1.17;1.08;;;;;;;17.91;66.53;97907.97;2623778;54;20038;-71
2021/10/31 10:34:15;;;;;;;1.20;1.10;;;;;;;17.87;66.91;97912.22;2625208;39;20450;-71
2021/10/31 10:36:47;;;;;;;1.98;1.58;;;;;;;17.91;66.87;97907.97;2623080;47;20058;-72
2021/10/31 10:39:19;;;;;;;4.15;1.42;;;;;;;17.99;66.57;97909.34;2623912;54;20055;-71
2021/10/31 10:41:50;;;;;;;2.63;2.40;;;;;;;18.10;65.81;97900.28;2623516;54;20038;-71
2021/10/31 10:44:29;;;;;;;4.15;3.03;;;;;;;18.27;65.34;97900.06;2623740;54;20019;-71
2021/10/31 10:47:02;;;;;;;3.72;3.38;;;;;;;18.27;64.72;97898.19;2623791;54;20031;-72
2021/10/31 10:49:34;;;;;;;1.98;1.67;;;;;;;18.27;65.46;97900.06;2623881;54;20630;-72
2021/10/31 10:52:22;;;;;;;4.70;2.90;;;;;;;18.35;64.75;97886.16;2624121;39;20459;-71
2021/10/31 10:54:59;;;;;;;2.28;1.98;;;;;;;18.45;65.65;97885.38;2623092;54;20041;-72
2021/10/31 10:57:30;;;;;;;3.75;2.10;;;;;;;18.62;64.87;97883.25;2622551;54;20023;-72
2021/10/31 11:00:07;;;;;;;2.20;1.80;;;;;;;18.71;63.97;97887.03;2622705;54;20042;-71
2021/10/31 11:02:37;;;;;;;3.38;1.63;;;;;;;18.67;64.32;97887.81;2623410;54;20037;-71
2021/10/31 11:05:10;;;;;;;2.85;1.70;;;;;;;18.71;64.24;97879.00;2622531;54;20022;-70
2021/10/31 11:07:47;;;;;;;1.45;1.35;;;;;;;18.72;63.45;97871.78;2621229;54;20034;-72
2021/10/31 11:10:20;;;;;;;2.95;1.10;;;;;;;18.64;63.39;97872.28;2621557;54;20059;-72
2021/10/31 11:12:52;;;;;;;2.88;1.48;;;;;;;18.61;63.28;97862.09;2620911;47;20561;-71
2021/10/31 11:15:27;;;;;;;1.27;1.17;;;;;;;18.59;63.57;97856.22;2620468;54;20030;-73
2021/10/31 11:17:59;;;;;;;0.95;0.80;;;;;;;18.71;63.30;97851.44;2621029;54;20041;-72
2021/10/31 11:20:31;;;;;;;1.55;1.25;;;;;;;18.79;63.13;97846.34;2622565;31;20527;-73
2021/10/31 11:23:03;;;;;;;1.50;1.30;;;;;;;18.73;63.05;97838.56;2621269;54;20031;-72
2021/10/31 11:25:34;;;;;;;1.65;1.00;;;;;;;18.78;63.04;97839.41;2621536;54;20577;-72
2021/10/31 11:28:07;;;;;;;1.73;1.25;;;;;;;18.82;62.94;97831.63;2621981;54;20035;-71
2021/10/31 11:30:39;;;;;;;1.35;1.10;;;;;;;18.88;62.82;97829.75;2622083;54;20038;-70
2021/10/31 11:33:10;;;;;;;11.43;7.55;;;;;;;18.98;62.77;97827.03;2622731;54;20030;-71
2021/10/31 11:35:41;;;;;;;1.27;1.17;;;;;;;18.94;63.31;97834.00;2623246;39;20430;-71
2021/10/31 11:38:13;;;;;;;2.90;1.75;;;;;;;18.95;62.98;97824.91;2623553;39;20439;-71
2021/10/31 11:40:47;;;;;;;3.03;2.45;;;;;;;18.97;62.74;97817.41;2623107;47;20042;-71
2021/10/31 11:43:19;;;;;;;1.55;1.40;;;;;;;19.05;62.42;97814.97;2620818;54;20455;-71
2021/10/31 11:45:54;;;;;;;2.33;1.70;;;;;;;19.05;62.33;97806.94;2618135;51;20038;-71
2021/10/31 11:48:26;;;;;;;2.42;2.20;;;;;;;19.14;61.93;97803.69;2618455;54;20063;-69
2021/10/31 11:51:11;;;;;;;2.10;1.70;;;;;;;19.16;61.29;97793.53;2618477;54;20038;-71
2021/10/31 11:53:43;;;;;;;1.92;1.83;;;;;;;19.23;61.19;97786.81;2618631;54;20027;-71
2021/10/31 11:56:23;;;;;;;3.72;2.53;;;;;;;19.30;61.15;97781.94;2618591;54;20057;-71
2021/10/31 11:59:02;;;;;;;2.50;2.30;;;;;;;19.33;60.50;97771.75;2618337;54;20542;-70
2021/10/31 12:01:50;;;;;;;2.13;1.80;;;;;;;19.34;60.24;97766.13;2618636;54;20045;-72
2021/10/31 12:04:45;;;;;;;2.60;1.67;;;;;;;19.22;60.57;97774.47;2619166;39;20444;-72
2021/10/31 12:07:40;;;;;;;1.83;1.45;;;;;;;19.15;60.72;97771.31;2621840;54;20027;-71
2021/10/31 12:10:26;;;;;;;3.13;2.03;;;;;;;19.15;61.14;97762.47;2622780;46;20086;-72
2021/10/31 12:13:16;;;;;;;2.55;2.33;;;;;;;19.18;60.86;97759.22;2622952;54;20038;-72
2021/10/31 12:16:03;;;;;;;2.00;1.60;;;;;;;19.19;60.64;97748.25;2623341;54;20022;-72
2021/10/31 12:18:47;;;;;;;5.30;3.30;;;;;;;19.16;60.61;97746.09;2623289;54;20042;-73
2021/10/31 12:21:22;;;;;;;3.42;2.47;;;;;;;19.16;60.27;97738.06;2622762;54;20030;-72
2021/10/31 12:23:58;;;;;;;2.03;1.40;;;;;;;19.18;59.33;97735.91;2623132;54;20041;-71
2021/10/31 12:26:50;;;;;;;1.60;1.40;;;;;;;19.23;59.25;97735.91;2623916;54;20038;-71
2021/10/31 12:29:21;;;;;;;4.15;2.60;;;;;;;19.24;59.20;97724.09;2622066;47;20026;-72
2021/10/31 12:31:56;;;;;;;3.25;2.78;;;;;;;19.23;59.30;97727.06;2622159;54;20082;-72
2021/10/31 12:34:37;;;;;;;5.53;4.88;;;;;;;19.25;59.80;97719.53;2621182;54;20043;-71
2021/10/31 12:44:18;;;;;;;3.17;2.83;;;;;;;19.16;59.73;97705.94;2620108;46;20019;-72
2021/10/31 12:47:04;;;;;;;2.40;2.20;;;;;;;19.23;59.88;97702.97;2619092;54;20037;-72
2021/10/31 12:49:37;;;;;;;3.53;2.90;;;;;;;19.21;59.94;97708.56;2619441;39;20413;-71